createdAt,value
2018-07-28T00:00:41.330Z,93906.11
2018-07-28T00:03:10.684Z,93899.55
2018-07-28T00:05:39.981Z,93903.14
2018-07-28T00:08:09.310Z,93899.50
2018-07-28T00:10:38.764Z,93902.13
2018-07-28T00:13:08.142Z,93895.83
2018-07-28T00:15:37.761Z,93899.02
2018-07-28T00:18:07.292Z,93891.63
2018-07-28T00:20:36.673Z,93891.92
2018-07-28T00:23:06.225Z,93887.72
2018-07-28T00:25:39.177Z,93878.04
2018-07-28T00:28:08.746Z,93887.50
2018-07-28T00:30:37.903Z,93885.12
2018-07-28T00:33:07.253Z,93885.66
2018-07-28T00:35:36.293Z,93875.70
2018-07-28T00:38:05.639Z,93871.77
2018-07-28T00:40:34.944Z,93865.19
2018-07-28T00:43:04.321Z,93866.23
2018-07-28T00:45:33.681Z,93870.17
2018-07-28T00:48:03.106Z,93863.61
2018-07-28T00:50:32.667Z,93857.31
2018-07-28T00:53:02.094Z,93855.22
2018-07-28T00:55:36.232Z,93848.13
2018-07-28T00:58:06.489Z,93852.33
2018-07-28T01:00:35.782Z,93847.62
2018-07-28T01:03:05.234Z,93846.56
2018-07-28T01:05:34.792Z,93850.23
2018-07-28T01:08:04.253Z,93852.83
2018-07-28T01:10:34.008Z,93857.80
2018-07-28T01:13:03.430Z,93855.97
2018-07-28T01:15:32.928Z,93858.34
2018-07-28T01:18:02.334Z,93858.88
2018-07-28T01:20:31.694Z,93861.23
2018-07-28T01:23:01.107Z,93860.19
2018-07-28T01:25:30.538Z,93859.66
2018-07-28T01:27:59.884Z,93854.14
2018-07-28T01:30:31.606Z,93851.78
2018-07-28T01:33:01.916Z,93850.73
2018-07-28T01:35:31.159Z,93847.86
2018-07-28T01:38:00.597Z,93847.88
2018-07-28T01:40:29.953Z,93849.72
2018-07-28T01:42:59.306Z,93846.05
2018-07-28T01:45:28.828Z,93843.42
2018-07-28T01:47:58.143Z,93844.72
2018-07-28T01:50:27.804Z,93845.53
2018-07-28T01:52:57.228Z,93843.14
2018-07-28T01:55:26.541Z,93836.61
2018-07-28T01:57:55.769Z,93834.23
2018-07-28T02:00:25.171Z,93831.88
2018-07-28T02:02:55.489Z,93826.08
2018-07-28T02:05:24.789Z,93817.97
2018-07-28T02:07:54.237Z,93813.77
2018-07-28T02:10:23.565Z,93814.80
2018-07-28T02:12:52.936Z,93810.88
2018-07-28T02:15:22.355Z,93807.20
2018-07-28T02:17:51.821Z,93811.91
2018-07-28T02:20:21.355Z,93821.83
2018-07-28T02:22:51.667Z,93822.77
2018-07-28T02:25:21.143Z,93829.36
2018-07-28T02:27:50.420Z,93824.16
2018-07-28T02:30:19.885Z,93820.52
2018-07-28T02:32:49.362Z,93826.06
2018-07-28T02:35:18.571Z,93821.85
2018-07-28T02:37:47.847Z,93817.94
2018-07-28T02:40:17.209Z,93822.94
2018-07-28T02:42:46.662Z,93822.43
2018-07-28T02:45:16.961Z,93818.51
2018-07-28T02:47:46.362Z,93818.24
2018-07-28T02:50:15.801Z,93816.38
2018-07-28T02:52:45.484Z,93820.84
2018-07-28T02:55:14.862Z,93819.52
2018-07-28T02:57:44.561Z,93823.12
2018-07-28T03:00:16.621Z,93827.22
2018-07-28T03:02:46.173Z,93824.91
2018-07-28T03:05:15.797Z,93821.01
2018-07-28T03:07:46.445Z,93820.50
2018-07-28T03:10:16.581Z,93822.85
2018-07-28T03:12:46.603Z,93819.72
2018-07-28T03:15:33.051Z,93827.58
2018-07-28T03:18:04.809Z,93823.10
2018-07-28T03:20:34.188Z,93820.50
2018-07-28T03:23:04.076Z,93819.77
2018-07-28T03:25:33.410Z,93816.90
2018-07-28T03:28:02.883Z,93823.98
2018-07-28T03:30:32.245Z,93825.27
2018-07-28T03:33:01.749Z,93824.75
2018-07-28T03:35:30.997Z,93822.68
2018-07-28T03:38:00.363Z,93834.74
2018-07-28T03:40:29.835Z,93838.64
2018-07-28T03:42:59.277Z,93848.32
2018-07-28T03:45:28.737Z,93842.31
2018-07-28T03:47:58.099Z,93845.42
2018-07-28T03:50:28.021Z,93845.65
2018-07-28T03:52:59.650Z,93845.14
2018-07-28T03:55:28.671Z,93846.72
2018-07-28T03:57:57.770Z,93851.42
2018-07-28T04:00:26.978Z,93855.60
2018-07-28T04:02:55.952Z,93848.52
2018-07-28T04:05:25.093Z,93851.42
2018-07-28T04:07:54.850Z,93853.95
2018-07-28T04:10:23.898Z,93848.50
2018-07-28T04:12:52.897Z,93847.16
2018-07-28T04:15:21.959Z,93853.16
2018-07-28T04:17:53.088Z,93850.84
2018-07-28T04:20:23.022Z,93845.34
2018-07-28T04:22:52.604Z,93850.52
2018-07-28T04:25:22.160Z,93841.02
2018-07-28T04:27:51.507Z,93841.09
2018-07-28T04:30:21.142Z,93842.95
2018-07-28T04:32:50.179Z,93845.30
2018-07-28T04:35:19.335Z,93847.30
2018-07-28T04:37:48.482Z,93848.06
2018-07-28T04:40:17.590Z,93849.34
2018-07-28T04:42:46.715Z,93850.95
2018-07-28T04:45:15.807Z,93850.18
2018-07-28T04:47:45.658Z,93848.37
2018-07-28T04:50:14.852Z,93849.20
2018-07-28T04:52:44.071Z,93846.64
2018-07-28T04:55:13.095Z,93852.72
2018-07-28T04:57:42.486Z,93854.36
2018-07-28T05:00:11.948Z,93848.09
2018-07-28T05:02:41.102Z,93845.76
2018-07-28T05:05:10.200Z,93844.95
2018-07-28T05:07:39.505Z,93847.56
2018-07-28T05:10:08.497Z,93853.59
2018-07-28T05:12:37.572Z,93851.72
2018-07-28T05:15:07.564Z,93844.67
2018-07-28T05:17:36.754Z,93848.78
2018-07-28T05:20:06.694Z,93851.99
2018-07-28T05:22:35.750Z,93847.85
2018-07-28T05:25:04.934Z,93846.58
2018-07-28T05:27:34.646Z,93856.02
2018-07-28T05:30:04.158Z,93847.38
2018-07-28T05:32:33.653Z,93849.73
2018-07-28T05:35:02.992Z,93845.01
2018-07-28T05:37:32.501Z,93844.48
2018-07-28T05:40:02.558Z,93846.84
2018-07-28T05:42:32.181Z,93841.05
2018-07-28T05:45:01.610Z,93839.17
2018-07-28T05:47:31.131Z,93839.17
2018-07-28T05:50:01.402Z,93839.69
2018-07-28T05:52:31.200Z,93833.92
2018-07-28T05:55:00.765Z,93837.89
2018-07-28T05:57:30.120Z,93843.65
2018-07-28T06:00:00.801Z,93841.28
2018-07-28T06:02:30.351Z,93843.92
2018-07-28T06:04:59.656Z,93845.78
2018-07-28T06:07:28.942Z,93841.86
2018-07-28T06:09:58.349Z,93846.33
2018-07-28T06:12:27.825Z,93845.80
2018-07-28T06:14:57.241Z,93847.55
2018-07-28T06:17:26.544Z,93844.97
2018-07-28T06:19:56.095Z,93840.17
2018-07-28T06:22:25.919Z,93827.48
2018-07-28T06:24:55.458Z,93830.64
2018-07-28T06:27:24.998Z,93818.91
2018-07-28T06:29:54.715Z,93813.94
2018-07-28T06:32:24.385Z,93819.71
2018-07-28T06:34:53.712Z,93820.99
2018-07-28T06:37:22.992Z,93818.84
2018-07-28T06:39:52.602Z,93819.16
2018-07-28T06:42:22.090Z,93817.00
2018-07-28T06:44:51.531Z,93817.78
2018-07-28T06:47:22.339Z,93823.77
2018-07-28T06:49:52.305Z,93823.48
2018-07-28T06:52:21.714Z,93820.95
2018-07-28T06:54:51.076Z,93814.44
2018-07-28T06:57:20.915Z,93820.49
2018-07-28T06:59:50.359Z,93818.36
2018-07-28T07:02:19.793Z,93822.39
2018-07-28T07:04:49.206Z,93822.04
2018-07-28T07:07:18.714Z,93815.88
2018-07-28T07:09:48.214Z,93812.48
2018-07-28T07:12:17.918Z,93818.28
2018-07-28T07:14:48.411Z,93814.33
2018-07-28T07:17:18.352Z,93814.92
2018-07-28T07:19:48.025Z,93814.81
2018-07-28T07:22:17.446Z,93816.00
2018-07-28T07:24:47.099Z,93812.25
2018-07-28T07:27:16.980Z,93818.22
2018-07-28T07:29:46.716Z,93814.81
2018-07-28T07:32:16.142Z,93820.84
2018-07-28T07:34:45.636Z,93824.63
2018-07-28T07:37:16.716Z,93820.55
2018-07-28T07:39:47.603Z,93821.13
2018-07-28T07:42:17.885Z,93823.33
2018-07-28T07:44:47.473Z,93815.99
2018-07-28T07:47:17.109Z,93816.95
2018-07-28T07:49:47.199Z,93822.38
2018-07-28T07:52:16.528Z,93812.66
2018-07-28T07:54:45.856Z,93812.05
2018-07-28T07:57:14.944Z,93803.80
2018-07-28T07:59:45.633Z,93802.92
2018-07-28T08:02:15.082Z,93809.98
2018-07-28T08:04:44.405Z,93808.74
2018-07-28T08:07:14.005Z,93802.78
2018-07-28T08:09:43.267Z,93799.95
2018-07-28T08:12:12.743Z,93793.23
2018-07-28T08:14:42.476Z,93792.22
2018-07-28T08:17:11.919Z,93791.05
2018-07-28T08:19:41.334Z,93789.58
2018-07-28T08:22:10.990Z,93791.52
2018-07-28T08:24:40.471Z,93787.91
2018-07-28T08:27:10.107Z,93791.44
2018-07-28T08:29:39.599Z,93785.23
2018-07-28T08:32:09.507Z,93784.67
2018-07-28T08:34:38.904Z,93781.59
2018-07-28T08:37:08.338Z,93784.27
2018-07-28T08:39:37.645Z,93780.87
2018-07-28T08:42:07.113Z,93777.57
2018-07-28T08:44:36.348Z,93771.21
2018-07-28T08:47:06.549Z,93776.27
2018-07-28T08:49:35.990Z,93770.50
2018-07-28T08:52:05.730Z,93769.97
2018-07-28T08:54:35.373Z,93768.88
2018-07-28T08:57:06.554Z,93764.17
2018-07-28T08:59:36.475Z,93764.64
2018-07-28T09:02:05.879Z,93762.69
2018-07-28T09:04:35.938Z,93764.33
2018-07-28T09:07:05.396Z,93754.80
2018-07-28T09:09:35.460Z,93756.95
2018-07-28T09:12:05.431Z,93754.34
2018-07-28T09:14:34.872Z,93753.25
2018-07-28T09:17:05.098Z,93753.59
2018-07-28T09:19:35.266Z,93747.65
2018-07-28T09:22:05.044Z,93749.42
2018-07-28T09:24:34.610Z,93750.44
2018-07-28T09:27:04.062Z,93748.73
2018-07-28T09:29:33.481Z,93747.73
2018-07-28T09:32:02.992Z,93746.91
2018-07-28T09:34:32.448Z,93742.69
2018-07-28T09:37:01.977Z,93739.33
2018-07-28T09:39:31.408Z,93737.17
2018-07-28T09:42:00.905Z,93735.14
2018-07-28T09:44:30.219Z,93736.61
2018-07-28T09:46:59.582Z,93735.70
2018-07-28T09:49:29.101Z,93733.13
2018-07-28T09:51:58.664Z,93729.69
2018-07-28T09:54:29.553Z,93720.20
2018-07-28T09:56:58.963Z,93725.56
2018-07-28T09:59:28.521Z,93725.14
2018-07-28T10:01:58.210Z,93717.89
2018-07-28T10:04:27.666Z,93716.98
2018-07-28T10:06:57.422Z,93718.63
2018-07-28T10:09:26.928Z,93718.84
2018-07-28T10:11:56.393Z,93719.23
2018-07-28T10:14:25.940Z,93707.88
2018-07-28T10:16:55.435Z,93707.65
2018-07-28T10:19:24.992Z,93707.61
2018-07-28T10:21:54.114Z,93703.32
2018-07-28T10:24:23.157Z,93708.39
2018-07-28T10:26:52.132Z,93704.41
2018-07-28T10:29:21.253Z,93700.22
2018-07-28T10:31:50.443Z,93699.74
2018-07-28T10:34:19.936Z,93704.17
2018-07-28T10:36:49.613Z,93710.59
2018-07-28T10:39:19.216Z,93707.42
2018-07-28T10:41:48.560Z,93711.45
2018-07-28T10:44:17.890Z,93709.53
2018-07-28T10:46:47.269Z,93700.48
2018-07-28T10:49:16.853Z,93708.53
2018-07-28T10:51:46.591Z,93707.20
2018-07-28T10:54:16.174Z,93703.98
2018-07-28T10:56:45.534Z,93700.38
2018-07-28T10:59:15.028Z,93700.33
2018-07-28T11:01:44.517Z,93703.31
2018-07-28T11:04:13.828Z,93696.06
2018-07-28T11:06:43.356Z,93692.06
2018-07-28T11:09:12.828Z,93694.47
2018-07-28T11:11:42.463Z,93698.42
2018-07-28T11:14:11.972Z,93697.09
2018-07-28T11:16:41.935Z,93699.91
2018-07-28T11:19:11.336Z,93698.44
2018-07-28T11:21:40.798Z,93694.58
2018-07-28T11:24:11.135Z,93697.05
2018-07-28T11:26:40.769Z,93696.55
2018-07-28T11:29:10.272Z,93699.66
2018-07-28T11:31:50.878Z,93694.79
2018-07-28T11:34:31.075Z,93696.68
2018-07-28T11:37:11.153Z,93689.56
2018-07-28T11:39:51.392Z,93694.09
2018-07-28T11:42:31.713Z,93690.33
2018-07-28T11:45:06.172Z,93685.94
2018-07-28T11:47:36.058Z,93691.81
2018-07-28T11:50:05.472Z,93680.77
2018-07-28T11:52:35.342Z,93675.98
2018-07-28T11:55:04.924Z,93680.94
2018-07-28T11:57:34.293Z,93679.91
2018-07-28T12:00:03.732Z,93679.39
2018-07-28T12:02:33.304Z,93680.81
2018-07-28T12:05:02.700Z,93678.26
2018-07-28T12:07:32.141Z,93672.36
2018-07-28T12:10:01.639Z,93669.59
2018-07-28T12:12:31.220Z,93671.50
2018-07-28T12:15:01.560Z,93673.58
2018-07-28T12:17:31.315Z,93669.11
2018-07-28T12:20:00.777Z,93669.11
2018-07-28T12:22:30.215Z,93669.80
2018-07-28T12:25:00.444Z,93664.31
2018-07-28T12:27:29.971Z,93658.26
2018-07-28T12:29:59.453Z,93661.73
2018-07-28T12:32:28.939Z,93663.75
2018-07-28T12:34:58.576Z,93654.11
2018-07-28T12:37:27.827Z,93661.22
2018-07-28T12:39:57.326Z,93661.02
2018-07-28T12:42:26.754Z,93665.75
2018-07-28T12:44:56.072Z,93660.52
2018-07-28T12:47:25.405Z,93651.70
2018-07-28T12:49:54.661Z,93658.94
2018-07-28T12:52:24.924Z,93651.24
2018-07-28T12:54:57.505Z,93658.63
2018-07-28T12:57:27.230Z,93651.48
2018-07-28T12:59:57.398Z,93650.77
2018-07-28T13:02:27.015Z,93654.70
2018-07-28T13:04:56.606Z,93650.58
2018-07-28T13:07:26.399Z,93653.92
2018-07-28T13:09:57.460Z,93655.40
2018-07-28T13:12:26.861Z,93659.89
2018-07-28T13:14:56.273Z,93668.33
2018-07-28T13:17:26.327Z,93667.14
2018-07-28T13:19:56.564Z,93666.17
2018-07-28T13:22:26.832Z,93671.29
2018-07-28T13:24:56.120Z,93673.86
2018-07-28T13:27:26.020Z,93672.39
2018-07-28T13:29:55.931Z,93677.31
2018-07-28T13:32:26.135Z,93674.94
2018-07-28T13:34:55.436Z,93671.59
2018-07-28T13:37:24.733Z,93670.06
2018-07-28T13:39:54.159Z,93672.64
2018-07-28T13:42:23.664Z,93674.17
2018-07-28T13:44:53.169Z,93678.83
2018-07-28T13:47:22.578Z,93673.05
2018-07-28T13:49:52.056Z,93677.08
2018-07-28T13:52:21.438Z,93679.17
2018-07-28T13:54:51.013Z,93686.59
2018-07-28T13:57:20.323Z,93684.81
2018-07-28T13:59:49.676Z,93698.55
2018-07-28T14:02:20.461Z,93692.48
2018-07-28T14:04:50.317Z,93693.20
2018-07-28T14:07:19.863Z,93692.99
2018-07-28T14:09:49.362Z,93684.04
2018-07-28T14:12:19.036Z,93679.54
2018-07-28T14:14:49.431Z,93677.38
2018-07-28T14:17:18.958Z,93677.05
2018-07-28T14:19:49.044Z,93668.81
2018-07-28T14:22:18.485Z,93667.87
2018-07-28T14:24:47.851Z,93665.73
2018-07-28T14:27:17.264Z,93668.70
2018-07-28T14:29:46.905Z,93669.75
2018-07-28T14:32:17.205Z,93666.41
2018-07-28T14:34:46.737Z,93666.27
2018-07-28T14:37:16.280Z,93665.69
2018-07-28T14:39:45.645Z,93652.39
2018-07-28T14:42:14.975Z,93653.41
2018-07-28T14:44:44.454Z,93655.30
2018-07-28T14:47:13.880Z,93653.47
2018-07-28T14:49:43.190Z,93654.20
2018-07-28T14:52:13.419Z,93657.11
2018-07-28T14:54:42.950Z,93650.25
2018-07-28T14:57:12.408Z,93648.58
2018-07-28T14:59:41.860Z,93651.96
2018-07-28T15:02:11.369Z,93654.05
2018-07-28T15:04:42.154Z,93656.61
2018-07-28T15:07:11.791Z,93652.39
2018-07-28T15:09:41.133Z,93658.58
2018-07-28T15:12:10.819Z,93655.91
2018-07-28T15:14:40.278Z,93656.28
2018-07-28T15:17:09.699Z,93655.02
2018-07-28T15:19:39.212Z,93654.54
2018-07-28T15:22:08.864Z,93661.92
2018-07-28T15:24:38.679Z,93660.17
2018-07-28T15:27:08.486Z,93655.05
2018-07-28T15:29:38.294Z,93659.28
2018-07-28T15:32:07.750Z,93661.23
2018-07-28T15:34:37.295Z,93664.12
2018-07-28T15:37:08.160Z,93673.93
2018-07-28T15:39:37.439Z,93672.02
2018-07-28T15:42:06.987Z,93667.45
2018-07-28T15:44:36.995Z,93663.05
2018-07-28T15:47:06.435Z,93665.75
2018-07-28T15:49:36.511Z,93667.48
2018-07-28T15:52:05.901Z,93669.38
2018-07-28T15:54:35.245Z,93668.58
2018-07-28T15:57:04.899Z,93662.22
2018-07-28T15:59:34.339Z,93663.92
2018-07-28T16:02:03.638Z,93662.36
2018-07-28T16:04:32.992Z,93656.74
2018-07-28T16:07:02.780Z,93652.92
2018-07-28T16:09:32.136Z,93652.23
2018-07-28T16:12:01.449Z,93663.47
2018-07-28T16:14:30.774Z,93662.31
2018-07-28T16:17:00.094Z,93665.66
2018-07-28T16:19:29.551Z,93672.16
2018-07-28T16:21:59.180Z,93666.00
2018-07-28T16:24:29.023Z,93669.38
2018-07-28T16:26:58.994Z,93675.75
2018-07-28T16:29:29.013Z,93668.11
2018-07-28T16:32:00.354Z,93673.30
2018-07-28T16:34:30.793Z,93673.06
2018-07-28T16:37:00.432Z,93675.68
2018-07-28T16:39:30.930Z,93678.33
2018-07-28T16:42:00.338Z,93683.80
2018-07-28T16:44:29.814Z,93684.81
2018-07-28T16:46:59.305Z,93681.77
2018-07-28T16:49:28.654Z,93682.23
2018-07-28T16:51:58.291Z,93682.60
2018-07-28T16:54:27.951Z,93677.44
2018-07-28T16:56:57.285Z,93685.06
2018-07-28T16:59:27.038Z,93686.91
2018-07-28T17:01:56.768Z,93687.92
2018-07-28T17:04:27.467Z,93687.39
2018-07-28T17:06:56.946Z,93693.32
2018-07-28T17:09:26.824Z,93696.23
2018-07-28T17:11:56.255Z,93707.77
2018-07-28T17:14:25.743Z,93717.88
2018-07-28T17:16:55.163Z,93724.18
2018-07-28T17:19:24.727Z,93722.77
2018-07-28T17:21:54.308Z,93725.30
2018-07-28T17:24:24.615Z,93731.23
2018-07-28T17:26:54.221Z,93737.63
2018-07-28T17:29:23.469Z,93733.66
2018-07-28T17:31:52.765Z,93735.84
2018-07-28T17:34:22.116Z,93739.69
2018-07-28T17:36:51.416Z,93749.04
2018-07-28T17:39:20.674Z,93755.94
2018-07-28T17:41:50.783Z,93755.80
2018-07-28T17:44:20.177Z,93753.53
2018-07-28T17:46:49.666Z,93758.45
2018-07-28T17:49:19.172Z,93766.24
2018-07-28T17:51:49.383Z,93770.17
2018-07-28T17:54:20.263Z,93780.30
2018-07-28T17:56:54.250Z,93784.64
2018-07-28T17:59:26.105Z,93796.55
2018-07-28T18:01:56.663Z,93798.66
2018-07-28T18:04:26.856Z,93803.13
2018-07-28T18:07:00.539Z,93814.17
2018-07-28T18:09:31.742Z,93815.92
2018-07-28T18:12:01.776Z,93823.84
2018-07-28T18:14:32.489Z,93826.92
2018-07-28T18:17:03.913Z,93829.39
2018-07-28T18:19:33.510Z,93837.44
2018-07-28T18:22:03.311Z,93833.52
2018-07-28T18:24:32.883Z,93845.15
2018-07-28T18:27:02.166Z,93850.58
2018-07-28T18:29:31.389Z,93852.78
2018-07-28T18:32:00.668Z,93858.59
2018-07-28T18:34:30.109Z,93859.27
2018-07-28T18:36:59.670Z,93872.78
2018-07-28T18:39:28.995Z,93872.83
2018-07-28T18:41:58.571Z,93881.01
2018-07-28T18:44:28.028Z,93878.70
2018-07-28T18:46:57.475Z,93883.45
2018-07-28T18:49:27.802Z,93886.10
2018-07-28T18:51:58.877Z,93890.67
2018-07-28T18:54:29.406Z,93903.15
2018-07-28T18:56:58.934Z,93903.28
2018-07-28T18:59:28.483Z,93912.36
2018-07-28T19:01:57.903Z,93917.39
2018-07-28T19:04:27.911Z,93921.80
2018-07-28T19:06:57.633Z,93916.70
2018-07-28T19:09:32.265Z,93923.95
2018-07-28T19:12:07.450Z,93932.66
2018-07-28T19:14:39.586Z,93938.02
2018-07-28T19:17:09.517Z,93940.23
2018-07-28T19:19:39.168Z,93955.99
2018-07-28T19:22:14.178Z,93958.77
2018-07-28T19:24:44.419Z,93969.05
2018-07-28T19:27:13.926Z,93969.95
2018-07-28T19:29:44.820Z,93981.30
2018-07-28T19:32:14.919Z,93985.36
2018-07-28T19:34:44.082Z,93984.83
2018-07-28T19:37:18.991Z,93988.69
2018-07-28T19:39:48.573Z,93993.86
2018-07-28T19:42:23.123Z,93999.39
2018-07-28T19:44:52.890Z,94002.20
2018-07-28T19:47:22.642Z,94002.87
2018-07-28T19:49:59.269Z,94004.14
2018-07-28T19:52:28.819Z,94011.02
2018-07-28T19:55:01.957Z,94002.54
2018-07-28T19:57:39.552Z,94014.75
2018-07-28T20:00:17.056Z,94021.49
2018-07-28T20:02:46.499Z,94023.80
2018-07-28T20:05:15.806Z,94023.55
2018-07-28T20:07:45.336Z,94030.70
2018-07-28T20:10:15.002Z,94036.70
2018-07-28T20:12:44.644Z,94043.08
2018-07-28T20:15:14.457Z,94039.70
2018-07-28T20:17:44.140Z,94046.02
2018-07-28T20:20:13.798Z,94048.78
2018-07-28T20:22:43.251Z,94058.81
2018-07-28T20:25:12.510Z,94058.50
2018-07-28T20:27:42.070Z,94049.98
2018-07-28T20:30:13.711Z,94051.32
2018-07-28T20:32:44.314Z,94049.97
2018-07-28T20:35:13.819Z,94041.48
2018-07-28T20:37:43.241Z,94036.50
2018-07-28T20:40:13.531Z,94027.82
2018-07-28T20:42:44.217Z,94030.97
2018-07-28T20:45:13.516Z,94034.06
2018-07-28T20:47:42.823Z,94043.33
2018-07-28T20:50:12.984Z,94045.16
2018-07-28T20:52:43.099Z,94048.25
2018-07-28T20:55:12.507Z,94047.15
2018-07-28T20:57:42.236Z,94045.97
2018-07-28T21:00:11.987Z,94055.06
2018-07-28T21:02:41.382Z,94063.41
2018-07-28T21:05:10.929Z,94062.98
2018-07-28T21:07:40.471Z,94062.71
2018-07-28T21:10:10.032Z,94064.36
2018-07-28T21:12:39.349Z,94065.42
2018-07-28T21:15:08.700Z,94064.43
2018-07-28T21:17:39.265Z,94068.57
2018-07-28T21:20:09.427Z,94067.95
2018-07-28T21:22:39.790Z,94073.16
2018-07-28T21:25:09.301Z,94079.44
2018-07-28T21:27:39.293Z,94080.91
2018-07-28T21:30:08.636Z,94089.53
2018-07-28T21:32:38.392Z,94094.20
2018-07-28T21:35:07.902Z,94105.36
2018-07-28T21:37:37.346Z,94093.45
2018-07-28T21:40:06.903Z,94104.09
2018-07-28T21:42:36.334Z,94105.72
2018-07-28T21:45:05.930Z,94109.37
2018-07-28T21:47:35.215Z,94123.45
2018-07-28T21:50:05.124Z,94135.92
2018-07-28T21:52:34.717Z,94135.08
2018-07-28T21:55:04.196Z,94135.86
2018-07-28T21:57:33.727Z,94129.77
2018-07-28T22:00:03.155Z,94136.61
2018-07-28T22:02:32.716Z,94134.48
2018-07-28T22:05:02.351Z,94132.09
2018-07-28T22:07:31.675Z,94139.47
2018-07-28T22:10:01.000Z,94139.23
2018-07-28T22:12:30.461Z,94139.00
2018-07-28T22:15:00.000Z,94138.19
2018-07-28T22:17:29.380Z,94135.58
2018-07-28T22:20:01.032Z,94136.06
2018-07-28T22:22:32.074Z,94137.15
2018-07-28T22:25:02.985Z,94134.55
2018-07-28T22:27:34.550Z,94136.98
2018-07-28T22:30:04.639Z,94138.62
2018-07-28T22:32:34.061Z,94144.16
2018-07-28T22:35:03.431Z,94136.56
2018-07-28T22:37:32.765Z,94159.16
2018-07-28T22:40:02.352Z,94145.94
2018-07-28T22:42:42.355Z,94153.30
2018-07-28T22:45:11.657Z,94151.55
2018-07-28T22:47:41.286Z,94147.87
2018-07-28T22:50:10.572Z,94150.31
2018-07-28T22:52:40.001Z,94148.75
2018-07-28T22:55:09.398Z,94147.16
2018-07-28T22:57:38.895Z,94146.66
2018-07-28T23:00:08.744Z,94157.71
2018-07-28T23:02:38.841Z,94156.17
2018-07-28T23:05:09.220Z,94154.13
2018-07-28T23:07:38.747Z,94160.71
2018-07-28T23:10:08.220Z,94165.42
2018-07-28T23:12:38.147Z,94164.13
2018-07-28T23:15:07.687Z,94159.39
2018-07-28T23:17:37.002Z,94165.17
2018-07-28T23:20:06.539Z,94155.71
2018-07-28T23:22:35.863Z,94164.72
2018-07-28T23:25:05.470Z,94163.14
2018-07-28T23:27:34.930Z,94171.84
2018-07-28T23:30:04.408Z,94173.95
2018-07-28T23:32:33.733Z,94168.70
2018-07-28T23:35:03.282Z,94168.41
2018-07-28T23:37:32.762Z,94167.36
2018-07-28T23:40:02.401Z,94162.65
2018-07-28T23:42:31.931Z,94156.60
2018-07-28T23:45:01.368Z,94160.28
2018-07-28T23:47:30.616Z,94158.18
2018-07-28T23:50:00.050Z,94158.98
2018-07-28T23:52:31.331Z,94159.51
2018-07-28T23:55:01.196Z,94162.14
2018-07-28T23:57:30.422Z,94157.94
